»·PEaware :: N1955 KBFL-KSBD

N1955 :: KBFL-KSBD

FLIGHT INFORMATION

Flight Status: Arrived
Operator: Privately registered:
United States
More flights under this callsign
Pilot: Ross W. (20449)
Aircraft: BEECH AIRCRAFT BARON
(BE58)
More flights by this aircraft type
Origin: KBFL Meadows
United States
Destination: KSBD San Bernardino Intl
United States
More flights between these airports :: More routes between these airports
Route: PMD
File this flight plan on PilotEdge
Remarks:
Altitude:
(Current/Filed)
9,500ft
Speed:
(Current/Filed)
165kts
Departed: 27-Sep-18 03:14 PM
Arrived: 27-Sep-18 04:05 PM
Distance/Time
Traveled:
121nm/0:50
Distance/Time
To Go:
Arrived

Flight Plot

Page will automatically refresh every two minutes.


Map Options




Map Legend


Flown Route
Filed Route
Departure Airport
Arrival Airport
Navaid (VOR, NDB)
Fix

Horizontal Profiles

Position Reports

Time Latitude Longitude Heading Altitude Ground
Speed
27-Sep-18 15:04 35.435327 -119.053851 137 498ft 0kts
27-Sep-18 15:05 35.435326 -119.053851 137 498ft 0kts
27-Sep-18 15:06 35.435326 -119.053851 137 498ft 0kts
27-Sep-18 15:07 35.435326 -119.053851 137 498ft 0kts
27-Sep-18 15:08 35.435326 -119.053851 137 498ft 0kts
27-Sep-18 15:09 35.435326 -119.053851 137 498ft 0kts
27-Sep-18 15:10 35.435326 -119.053851 137 498ft 0kts
27-Sep-18 15:11 35.435326 -119.053851 137 498ft 0kts
27-Sep-18 15:12 35.433680 -119.053765 134 492ft 21kts
27-Sep-18 15:13 35.428310 -119.047277 133 487ft 20kts
27-Sep-18 15:14 35.425683 -119.044794 229 479ft 0kts
27-Sep-18 15:15 35.425683 -119.044794 229 479ft 0kts
27-Sep-18 15:16 35.431523 -119.053339 313 500ft 99kts
27-Sep-18 15:17 35.446858 -119.077428 251 1616ft 105kts
27-Sep-18 15:18 35.420077 -119.067173 132 2800ft 121kts
27-Sep-18 15:19 35.398372 -119.035302 133 3830ft 133kts
27-Sep-18 15:20 35.376257 -119.000051 134 5023ft 129kts
27-Sep-18 15:21 35.355822 -118.967986 136 6068ft 138kts
27-Sep-18 15:22 35.333144 -118.931331 129 7223ft 136kts
27-Sep-18 15:23 35.307663 -118.898549 140 8362ft 124kts
27-Sep-18 15:24 35.282791 -118.866139 139 9085ft 139kts
27-Sep-18 15:25 35.257118 -118.828442 130 9511ft 161kts
27-Sep-18 15:26 35.223197 -118.788693 139 9601ft 175kts
27-Sep-18 15:27 35.185835 -118.748888 142 9620ft 180kts
27-Sep-18 15:28 35.147802 -118.709000 138 9595ft 181kts
27-Sep-18 15:29 35.110277 -118.668208 140 9582ft 181kts
27-Sep-18 15:30 35.071944 -118.627835 139 9542ft 182kts
27-Sep-18 15:31 35.033651 -118.587584 138 9522ft 182kts
27-Sep-18 15:32 34.999256 -118.542215 131 9520ft 181kts
27-Sep-18 15:33 34.967830 -118.494370 128 9512ft 181kts
27-Sep-18 15:34 34.935012 -118.448132 134 9501ft 179kts
27-Sep-18 15:35 34.903781 -118.401500 129 9563ft 175kts
27-Sep-18 15:36 34.874147 -118.356587 133 9568ft 172kts
27-Sep-18 15:37 34.836058 -118.321283 145 9473ft 177kts
27-Sep-18 15:38 34.798256 -118.283687 134 9434ft 177kts
27-Sep-18 15:39 34.768312 -118.236813 128 9417ft 176kts
27-Sep-18 15:40 34.737195 -118.191869 128 9491ft 174kts
27-Sep-18 15:41 34.703198 -118.149716 135 9484ft 175kts
27-Sep-18 15:42 34.668991 -118.107238 137 9491ft 175kts
27-Sep-18 15:43 34.632850 -118.067545 134 9481ft 176kts
27-Sep-18 15:44 34.610928 -118.014213 113 9440ft 176kts
27-Sep-18 15:45 34.592568 -117.959106 116 9406ft 177kts
27-Sep-18 15:46 34.570383 -117.906503 119 9476ft 174kts
27-Sep-18 15:47 34.547796 -117.854729 116 9532ft 174kts
27-Sep-18 15:48 34.525563 -117.802923 113 9592ft 173kts
27-Sep-18 15:49 34.508047 -117.748760 110 9649ft 174kts
27-Sep-18 15:50 34.488092 -117.695801 118 9685ft 174kts
27-Sep-18 15:51 34.465966 -117.643702 114 9721ft 173kts
27-Sep-18 15:52 34.447085 -117.589559 116 9703ft 174kts
27-Sep-18 15:53 34.427772 -117.536059 115 9740ft 173kts
27-Sep-18 15:54 34.406372 -117.482303 113 9598ft 178kts
27-Sep-18 15:55 34.385356 -117.428029 121 9495ft 179kts
27-Sep-18 15:56 34.349105 -117.387656 141 9422ft 182kts
27-Sep-18 15:57 34.306289 -117.355187 154 9242ft 183kts
27-Sep-18 15:58 34.258062 -117.336477 164 8948ft 189kts
27-Sep-18 15:59 34.207938 -117.313161 158 8404ft 193kts
27-Sep-18 16:00 34.172092 -117.266346 114 8060ft 196kts
27-Sep-18 16:01 34.148872 -117.208361 105 7522ft 189kts
27-Sep-18 16:02 34.132361 -117.147909 119 6024ft 189kts
27-Sep-18 16:03 34.100622 -117.119305 164 5357ft 186kts
27-Sep-18 16:04 34.070959 -117.129929 215 5623ft 171kts
27-Sep-18 16:05 34.090000 -117.179777 316 4029ft 170kts
27-Sep-18 16:06 34.100988 -117.216323 246 2049ft 109kts
27-Sep-18 16:07 34.094212 -117.238495 248 1107ft 26kts
27-Sep-18 16:08 34.094580 -117.240687 33 1101ft 0kts
27-Sep-18 16:09 34.096863 -117.235789 70 1115ft 23kts
27-Sep-18 16:10 34.099159 -117.228061 70 1136ft 19kts
27-Sep-18 16:11 34.101372 -117.224981 2 1145ft 11kts
27-Sep-18 16:12 34.101721 -117.224735 87 1145ft 0kts
27-Sep-18 16:13 34.101721 -117.224735 87 1145ft 0kts
27-Sep-18 16:14 34.101721 -117.224735 87 1145ft 0kts

Navigation Log

Ident Type
Flight plan parsing failed, navigation log unavailable